Time;durP1;ratioP1;P1;durP2;ratioP2;P2;SDS_P1;SDS_P2;PMS_P1;PMS_P2;Temp;Humidity;BMP_temperature;BMP_pressure;BME280_temperature;BME280_humidity;BME280_pressure;Samples;Min_cycle;Max_cycle;Signal;HPM_P1;HPM_P2
2022/08/17 00:02:07;;;;;;;36.63;28.88;;;;;;;;;;5034919;28;20045;-80
2022/08/17 00:04:33;;;;;;;36.10;30.25;;;;;;;;;;5035387;28;20517;-80
2022/08/17 00:06:59;;;;;;;36.95;31.17;;;;;;;;;;5053179;28;20048;-80
2022/08/17 00:09:25;;;;;;;33.83;29.83;;;;;;;;;;5052145;28;20428;-80
2022/08/17 00:11:51;;;;;;;35.38;30.38;;;;;;;;;;5035056;28;20098;-81
2022/08/17 00:14:18;;;;;;;36.15;30.70;;;;;;;;;;5053457;28;20037;-80
2022/08/17 00:16:46;;;;;;;37.42;31.63;;;;;;;;;;5052079;28;20060;-80
2022/08/17 00:19:14;;;;;;;38.90;31.67;;;;;;;;;;5035431;28;20048;-80
2022/08/17 00:21:42;;;;;;;39.35;31.75;;;;;;;;;;5052320;28;20040;-80
2022/08/17 00:24:08;;;;;;;37.55;31.40;;;;;;;;;;5052653;28;20049;-80
2022/08/17 00:26:34;;;;;;;33.35;29.48;;;;;;;;;;5052993;28;20057;-81
2022/08/17 00:29:01;;;;;;;36.42;31.17;;;;;;;;;;5051786;28;20486;-81
2022/08/17 00:31:27;;;;;;;36.63;30.92;;;;;;;;;;5052901;28;20060;-80
2022/08/17 00:33:53;;;;;;;36.67;30.20;;;;;;;;;;5034691;28;20512;-80
2022/08/17 00:36:20;;;;;;;32.35;27.83;;;;;;;;;;5052199;28;20111;-81
2022/08/17 00:38:46;;;;;;;35.72;31.85;;;;;;;;;;5034340;28;20037;-81
2022/08/17 00:41:14;;;;;;;37.35;31.13;;;;;;;;;;5035303;28;20075;-81
2022/08/17 00:43:46;;;;;;;33.85;30.08;;;;;;;;;;5051715;28;20072;-82
2022/08/17 00:46:18;;;;;;;34.63;29.25;;;;;;;;;;5034924;28;20064;-81
2022/08/17 00:48:44;;;;;;;35.08;28.98;;;;;;;;;;5052148;28;20041;-81
2022/08/17 00:51:31;;;;;;;37.78;30.92;;;;;;;;;;5051426;28;20048;-81
2022/08/17 00:54:15;;;;;;;31.42;27.52;;;;;;;;;;5024354;28;20045;-81
2022/08/17 00:56:45;;;;;;;32.33;27.08;;;;;;;;;;5052339;28;20111;-81
2022/08/17 00:59:13;;;;;;;35.60;27.98;;;;;;;;;;5052854;28;20040;-81
2022/08/17 01:01:40;;;;;;;32.00;28.50;;;;;;;;;;5052081;28;20037;-81
2022/08/17 01:04:07;;;;;;;33.13;28.10;;;;;;;;;;5051524;28;20051;-81
2022/08/17 01:06:33;;;;;;;36.28;30.25;;;;;;;;;;5052159;28;20049;-81
2022/08/17 01:09:00;;;;;;;35.88;28.10;;;;;;;;;;5052035;28;20075;-81
2022/08/17 01:11:27;;;;;;;36.17;31.55;;;;;;;;;;5051370;28;20083;-81
2022/08/17 01:13:53;;;;;;;42.30;33.60;;;;;;;;;;5051906;28;20045;-81
2022/08/17 01:16:23;;;;;;;41.83;33.75;;;;;;;;;;5034304;28;20062;-81
2022/08/17 01:18:50;;;;;;;38.78;31.27;;;;;;;;;;5051513;28;20083;-81
2022/08/17 01:21:22;;;;;;;41.67;33.05;;;;;;;;;;5052187;28;20497;-80
2022/08/17 01:23:48;;;;;;;33.97;29.35;;;;;;;;;;5051819;28;20063;-80
2022/08/17 01:26:15;;;;;;;41.35;32.25;;;;;;;;;;5051359;28;20108;-80
2022/08/17 01:28:42;;;;;;;40.15;32.88;;;;;;;;;;5034037;28;20510;-80
2022/08/17 01:31:08;;;;;;;40.42;32.78;;;;;;;;;;5051839;28;20483;-80
2022/08/17 01:33:35;;;;;;;42.78;32.42;;;;;;;;;;5051202;28;20033;-80
2022/08/17 01:36:02;;;;;;;35.72;31.40;;;;;;;;;;5033944;28;20041;-81
2022/08/17 01:38:30;;;;;;;43.45;35.00;;;;;;;;;;5034030;28;20500;-80
2022/08/17 01:40:59;;;;;;;43.90;34.17;;;;;;;;;;5033156;28;20040;-80
2022/08/17 01:43:27;;;;;;;42.63;34.10;;;;;;;;;;5051710;28;20048;-80
2022/08/17 01:45:55;;;;;;;42.88;36.67;;;;;;;;;;5051811;28;20045;-81
2022/08/17 01:48:21;;;;;;;44.78;34.42;;;;;;;;;;5051881;28;20393;-80
2022/08/17 01:50:49;;;;;;;42.40;32.05;;;;;;;;;;5033511;28;20041;-80
2022/08/17 01:53:23;;;;;;;36.33;30.00;;;;;;;;;;5016914;28;20103;-80
2022/08/17 01:55:51;;;;;;;47.28;35.92;;;;;;;;;;5051441;28;20494;-80
2022/08/17 01:58:17;;;;;;;41.35;32.72;;;;;;;;;;5051818;28;20528;-79
2022/08/17 02:00:44;;;;;;;31.10;26.73;;;;;;;;;;5050713;28;20037;-80
2022/08/17 02:03:11;;;;;;;33.20;28.40;;;;;;;;;;5053003;28;20563;-80
2022/08/17 02:05:38;;;;;;;42.80;32.22;;;;;;;;;;5037629;28;20502;-80
2022/08/17 02:08:06;;;;;;;35.53;29.80;;;;;;;;;;5054657;28;20048;-79
2022/08/17 02:10:32;;;;;;;35.33;27.92;;;;;;;;;;5055217;28;20482;-80
2022/08/17 02:12:58;;;;;;;35.90;30.77;;;;;;;;;;5055474;28;20045;-80
2022/08/17 02:15:25;;;;;;;45.58;36.70;;;;;;;;;;5036772;28;20033;-80
2022/08/17 02:17:51;;;;;;;34.80;29.52;;;;;;;;;;5037314;28;20518;-79
2022/08/17 02:20:17;;;;;;;36.67;29.30;;;;;;;;;;5037593;28;20506;-79
2022/08/17 02:22:44;;;;;;;35.38;30.00;;;;;;;;;;5054089;28;20051;-79
2022/08/17 02:25:12;;;;;;;36.08;29.80;;;;;;;;;;5037490;28;20049;-79
2022/08/17 02:27:38;;;;;;;30.02;25.52;;;;;;;;;;5020546;28;20045;-79
2022/08/17 02:30:05;;;;;;;33.55;28.83;;;;;;;;;;5054501;28;20045;-79
2022/08/17 02:32:31;;;;;;;31.10;26.50;;;;;;;;;;5055012;28;20098;-80
2022/08/17 02:34:57;;;;;;;44.00;34.17;;;;;;;;;;5037193;28;20482;-80
2022/08/17 02:37:24;;;;;;;37.95;31.90;;;;;;;;;;5054060;28;20125;-80
2022/08/17 02:39:51;;;;;;;37.13;28.92;;;;;;;;;;5054855;28;20504;-79
2022/08/17 02:42:17;;;;;;;50.45;36.45;;;;;;;;;;5054489;28;20047;-81
2022/08/17 02:44:43;;;;;;;67.35;37.80;;;;;;;;;;5036696;28;20056;-81
2022/08/17 02:47:10;;;;;;;111.80;38.33;;;;;;;;;;5037330;28;20044;-81
2022/08/17 02:49:36;;;;;;;68.93;43.63;;;;;;;;;;5053776;28;20154;-80
2022/08/17 02:52:04;;;;;;;39.85;31.20;;;;;;;;;;5036845;28;20182;-80
2022/08/17 02:54:30;;;;;;;32.65;28.48;;;;;;;;;;5036816;28;20045;-81
2022/08/17 02:56:56;;;;;;;35.75;28.23;;;;;;;;;;5053952;28;20043;-81
2022/08/17 02:59:23;;;;;;;30.65;26.10;;;;;;;;;;5054752;28;20043;-81
2022/08/17 03:01:49;;;;;;;47.47;36.15;;;;;;;;;;5036482;28;20521;-81
2022/08/17 03:04:15;;;;;;;42.00;32.00;;;;;;;;;;5053850;28;20106;-81
2022/08/17 03:06:41;;;;;;;40.38;30.67;;;;;;;;;;5054258;28;20040;-81
2022/08/17 03:09:08;;;;;;;34.78;27.48;;;;;;;;;;5036878;28;20059;-81
2022/08/17 03:11:34;;;;;;;48.38;29.52;;;;;;;;;;5053782;28;20462;-81
2022/08/17 03:14:00;;;;;;;99.45;33.55;;;;;;;;;;5054248;28;20072;-81
2022/08/17 03:16:26;;;;;;;65.68;30.95;;;;;;;;;;5035832;28;20048;-80
2022/08/17 03:18:53;;;;;;;48.13;29.20;;;;;;;;;;5035569;28;20041;-81
2022/08/17 03:21:19;;;;;;;61.55;30.23;;;;;;;;;;5036655;28;20049;-80
2022/08/17 03:23:45;;;;;;;57.78;28.25;;;;;;;;;;5036108;28;20052;-80
2022/08/17 03:26:11;;;;;;;49.08;28.20;;;;;;;;;;5035715;28;20450;-81
2022/08/17 03:28:38;;;;;;;71.35;28.33;;;;;;;;;;5054249;28;20045;-81
2022/08/17 03:31:05;;;;;;;74.85;27.55;;;;;;;;;;5035982;28;20126;-81
2022/08/17 03:33:31;;;;;;;55.15;29.58;;;;;;;;;;5053076;28;20080;-81
2022/08/17 03:35:57;;;;;;;63.83;31.15;;;;;;;;;;5036107;28;20033;-81
2022/08/17 03:38:23;;;;;;;71.90;30.27;;;;;;;;;;5035971;28;20041;-80
2022/08/17 03:40:50;;;;;;;54.83;31.95;;;;;;;;;;5053058;28;20126;-80
2022/08/17 03:43:17;;;;;;;55.20;31.05;;;;;;;;;;5054055;28;20159;-80
2022/08/17 03:56:45;;;;;;;32.50;25.90;;;;;;;;;;5053168;28;20045;-79
2022/08/17 03:59:17;;;;;;;75.95;36.10;;;;;;;;;;5036108;28;20036;-79
2022/08/17 04:01:44;;;;;;;38.08;28.25;;;;;;;;;;5052662;28;20375;-79
2022/08/17 04:04:10;;;;;;;50.70;33.15;;;;;;;;;;5019268;28;20041;-80
2022/08/17 04:06:36;;;;;;;71.57;35.67;;;;;;;;;;5035008;28;20037;-80
2022/08/17 04:09:03;;;;;;;86.40;37.15;;;;;;;;;;5053272;28;20048;-80
2022/08/17 04:11:29;;;;;;;43.25;32.47;;;;;;;;;;5053452;28;20044;-80
2022/08/17 04:13:55;;;;;;;52.67;33.40;;;;;;;;;;5034705;28;20109;-79
2022/08/17 04:16:22;;;;;;;73.80;37.22;;;;;;;;;;5053258;28;20045;-80
2022/08/17 04:18:48;;;;;;;85.90;36.13;;;;;;;;;;5052850;28;20513;-79
2022/08/17 04:21:14;;;;;;;118.60;41.83;;;;;;;;;;5052802;28;20041;-80
2022/08/17 04:23:40;;;;;;;43.83;31.13;;;;;;;;;;5052867;28;20051;-80
2022/08/17 04:26:06;;;;;;;42.55;30.83;;;;;;;;;;5052439;28;20087;-81
2022/08/17 04:28:32;;;;;;;47.22;31.50;;;;;;;;;;5051964;28;20044;-80
2022/08/17 04:30:58;;;;;;;78.75;36.05;;;;;;;;;;5034896;28;20071;-80
2022/08/17 04:33:25;;;;;;;75.25;35.17;;;;;;;;;;5052842;28;20127;-81
2022/08/17 04:35:52;;;;;;;70.28;33.92;;;;;;;;;;5052005;28;20501;-81
2022/08/17 04:38:23;;;;;;;66.30;35.00;;;;;;;;;;5035123;28;20032;-81
2022/08/17 04:43:35;;;;;;;101.00;41.00;;;;;;;;;;5033975;28;20139;-80
2022/08/17 04:46:03;;;;;;;51.53;36.83;;;;;;;;;;5052299;28;20514;-81
2022/08/17 04:48:34;;;;;;;34.00;29.40;;;;;;;;;;5052456;28;20041;-81
2022/08/17 04:51:00;;;;;;;45.72;34.80;;;;;;;;;;5033740;28;20132;-81
2022/08/17 04:53:27;;;;;;;74.18;34.65;;;;;;;;;;5052547;28;20465;-81
2022/08/17 04:55:54;;;;;;;58.88;30.10;;;;;;;;;;5051735;28;20040;-81
2022/08/17 04:58:20;;;;;;;38.22;29.35;;;;;;;;;;5034490;28;20540;-81
2022/08/17 05:00:46;;;;;;;59.78;34.83;;;;;;;;;;5034165;28;20052;-80
2022/08/17 05:03:12;;;;;;;65.05;35.20;;;;;;;;;;5051876;28;20045;-81
2022/08/17 05:05:42;;;;;;;64.65;32.47;;;;;;;;;;5018020;28;20128;-81
2022/08/17 05:08:08;;;;;;;60.78;31.55;;;;;;;;;;5052306;28;20115;-80
2022/08/17 05:10:37;;;;;;;47.38;31.27;;;;;;;;;;5051611;28;20043;-81
2022/08/17 05:13:05;;;;;;;38.08;29.65;;;;;;;;;;5051872;28;20574;-81
2022/08/17 05:15:31;;;;;;;35.17;28.40;;;;;;;;;;5052313;28;20040;-81
2022/08/17 05:17:57;;;;;;;43.67;30.38;;;;;;;;;;5051404;28;20457;-81
2022/08/17 05:20:24;;;;;;;42.38;30.92;;;;;;;;;;5052176;28;20048;-81
2022/08/17 05:22:54;;;;;;;34.08;26.58;;;;;;;;;;5033997;28;20045;-81
2022/08/17 05:25:21;;;;;;;46.92;28.73;;;;;;;;;;5017196;28;20091;-81
2022/08/17 05:27:47;;;;;;;52.85;30.35;;;;;;;;;;5051720;28;20053;-81
2022/08/17 05:30:15;;;;;;;45.17;28.70;;;;;;;;;;5017741;28;20041;-81
2022/08/17 05:33:10;;;;;;;31.90;26.17;;;;;;;;;;5033467;28;20493;-80
2022/08/17 05:35:38;;;;;;;33.83;26.45;;;;;;;;;;5013426;28;20520;-81
2022/08/17 05:38:04;;;;;;;30.23;25.50;;;;;;;;;;5052155;28;20048;-81
2022/08/17 05:40:31;;;;;;;45.28;29.90;;;;;;;;;;5038261;28;20057;-81
2022/08/17 05:43:17;;;;;;;31.90;25.83;;;;;;;;;;5037786;28;20041;-81
2022/08/17 05:46:02;;;;;;;29.60;25.67;;;;;;;;;;5037287;28;20055;-81
2022/08/17 05:48:28;;;;;;;;;;;;;;;;;;5056393;28;20124;-80
2022/08/17 05:50:57;;;;;;;40.70;26.25;;;;;;;;;;5037941;28;19996;-80
2022/08/17 05:53:42;;;;;;;31.58;24.63;;;;;;;;;;5037547;28;20450;-80
2022/08/17 05:56:15;;;;;;;38.40;31.33;;;;;;;;;;5038256;28;20049;-80
2022/08/17 05:58:47;;;;;;;31.70;28.17;;;;;;;;;;5021499;28;20547;-80
2022/08/17 06:01:31;;;;;;;44.60;33.45;;;;;;;;;;5055200;28;20462;-81
2022/08/17 06:04:11;;;;;;;46.58;30.20;;;;;;;;;;5055746;28;20045;-80
2022/08/17 06:06:43;;;;;;;33.40;27.33;;;;;;;;;;5054867;28;20040;-80
2022/08/17 06:09:38;;;;;;;57.83;36.88;;;;;;;;;;5055763;28;20405;-81
2022/08/17 06:12:23;;;;;;;34.22;28.50;;;;;;;;;;5034390;28;20049;-81
2022/08/17 06:15:09;;;;;;;36.83;29.05;;;;;;;;;;5054758;28;20041;-80
2022/08/17 06:17:36;;;;;;;44.92;31.90;;;;;;;;;;5055299;28;20091;-80
2022/08/17 06:20:05;;;;;;;37.15;29.92;;;;;;;;;;5020800;28;20521;-80
2022/08/17 06:22:33;;;;;;;42.30;32.25;;;;;;;;;;5054446;28;20497;-80
2022/08/17 06:25:04;;;;;;;34.92;29.15;;;;;;;;;;5054953;28;20147;-80
2022/08/17 06:27:36;;;;;;;38.30;31.25;;;;;;;;;;5036258;28;20057;-79
2022/08/17 06:30:08;;;;;;;40.38;32.78;;;;;;;;;;5037186;28;20045;-79
2022/08/17 06:32:38;;;;;;;42.35;33.50;;;;;;;;;;5037486;28;20106;-80
2022/08/17 06:35:06;;;;;;;38.75;31.00;;;;;;;;;;5054063;28;20048;-80
2022/08/17 06:37:49;;;;;;;39.28;29.42;;;;;;;;;;5055124;28;20036;-80
2022/08/17 06:40:37;;;;;;;41.22;34.92;;;;;;;;;;5037114;28;20056;-80
2022/08/17 06:43:21;;;;;;;38.40;30.92;;;;;;;;;;5053969;28;20697;-80
2022/08/17 06:45:51;;;;;;;;;;;;;;;;;;5020871;28;20049;-79
2022/08/17 06:48:23;;;;;;;45.80;32.78;;;;;;;;;;5037398;28;19916;-80
2022/08/17 06:50:52;;;;;;;38.92;30.38;;;;;;;;;;5035738;28;20045;-80
2022/08/17 06:53:26;;;;;;;43.33;32.60;;;;;;;;;;5020827;28;20498;-80
2022/08/17 06:55:52;;;;;;;;;;;;;;;;;;5036203;28;20048;-82
2022/08/17 06:58:23;;;;;;;35.58;30.02;;;;;;;;;;5033100;28;19921;-82
2022/08/17 07:00:51;;;;;;;36.97;29.40;;;;;;;;;;5045444;28;20409;-82
2022/08/17 07:03:39;;;;;;;41.33;31.88;;;;;;;;;;5045403;28;20103;-78
2022/08/17 07:06:19;;;;;;;38.58;32.67;;;;;;;;;;5044377;28;20127;-82
2022/08/17 07:08:54;;;;;;;35.75;30.42;;;;;;;;;;5047336;28;20056;-80
2022/08/17 07:11:26;;;;;;;39.67;32.47;;;;;;;;;;5033706;28;20045;-81
2022/08/17 07:13:55;;;;;;;43.45;30.63;;;;;;;;;;5052448;28;20076;-82
2022/08/17 07:16:35;;;;;;;36.90;30.08;;;;;;;;;;5054608;28;20043;-82
2022/08/17 07:19:01;;;;;;;39.95;32.92;;;;;;;;;;5035758;28;20048;-81
2022/08/17 07:21:37;;;;;;;45.38;35.33;;;;;;;;;;5035078;28;20044;-78
2022/08/17 07:24:09;;;;;;;42.92;34.50;;;;;;;;;;5071142;28;20063;-81
2022/08/17 07:26:37;;;;;;;46.85;35.28;;;;;;;;;;5049879;28;20052;-82
2022/08/17 07:29:04;;;;;;;42.72;34.58;;;;;;;;;;5052806;28;20077;-79
2022/08/17 07:31:32;;;;;;;45.60;36.28;;;;;;;;;;5051593;28;20696;-79
2022/08/17 07:34:05;;;;;;;44.95;35.47;;;;;;;;;;5035123;28;20073;-82
2022/08/17 07:36:33;;;;;;;45.00;34.83;;;;;;;;;;5016250;28;20048;-79
2022/08/17 07:39:00;;;;;;;40.28;33.65;;;;;;;;;;5052596;28;20045;-80
2022/08/17 07:41:26;;;;;;;46.72;37.78;;;;;;;;;;5055004;28;20039;-81
2022/08/17 07:43:52;;;;;;;50.40;37.92;;;20.10;99.90;;;;;;5046189;28;20057;-81
2022/08/17 07:49:11;;;;;;;51.58;38.35;;;20.10;99.90;;;;;;5053328;28;20079;-81
2022/08/17 07:51:42;;;;;;;47.92;38.10;;;19.50;99.90;;;;;;5035452;28;20053;-81
2022/08/17 07:54:14;;;;;;;52.95;38.67;;;19.70;99.90;;;;;;5035861;28;20079;-82
2022/08/17 07:57:22;;;;;;;54.58;41.53;;;19.80;99.90;;;;;;5035438;28;20045;-82
2022/08/17 08:00:00;;;;;;;56.15;40.45;;;20.20;99.90;;;;;;5034976;28;20084;-81
2022/08/17 08:02:40;;;;;;;53.75;42.75;;;;;;;;;;5034597;28;20090;-80
2022/08/17 08:05:28;;;;;;;49.10;38.95;;;;;;;;;;5035275;28;20076;-80
2022/08/17 08:08:14;;;;;;;54.20;41.35;;;;;;;;;;5035062;28;20084;-79
2022/08/17 08:10:56;;;;;;;53.88;41.20;;;;;;;;;;5034604;28;20037;-80
2022/08/17 08:13:24;;;;;;;43.63;36.40;;;;;;;;;;5035169;28;20155;-82
2022/08/17 08:15:52;;;;;;;50.20;39.80;;;;;;;;;;5060576;28;20059;-80
2022/08/17 08:18:21;;;;;;;47.50;40.13;;;;;;;;;;5037341;28;20474;-79
2022/08/17 08:21:08;;;;;;;46.25;40.22;;;;;;;;;;5030369;28;20049;-81
2022/08/17 08:23:52;;;;;;;41.58;37.05;;;;;;;;;;5055693;28;20056;-81
2022/08/17 08:26:39;;;;;;;42.63;38.00;;;;;;;;;;5072839;28;20072;-81
2022/08/17 08:32:02;;;;;;;42.72;38.08;;;;;;;;;;5032188;28;20048;-80
2022/08/17 08:35:07;;;;;;;47.83;38.15;;;;;;;;;;5050945;28;20041;-79
2022/08/17 08:37:51;;;;;;;44.42;38.22;;;;;;;;;;4938454;29;20398;-79
2022/08/17 08:40:37;;;;;;;44.70;37.25;;;;;;;;;;4953392;28;20043;-80
2022/08/17 08:43:10;;;;;;;45.97;40.47;;;;;;;;;;5006267;28;20060;-82
2022/08/17 08:45:51;;;;;;;45.13;40.22;;;;;;;;;;5017930;28;20436;-82
2022/08/17 08:48:30;;;;;;;40.97;36.70;;;;;;;;;;5015209;28;20044;-81
2022/08/17 08:51:00;;;;;;;39.83;34.33;;;;;;;;;;5051043;28;20044;-81
2022/08/17 08:53:36;;;;;;;44.72;37.78;;;;;;;;;;5011073;28;20049;-77
2022/08/17 08:56:15;;;;;;;43.72;35.60;;;;;;;;;;5045925;28;20486;-76
2022/08/17 08:58:58;;;;;;;42.60;34.78;;;;;;;;;;5026990;28;20037;-78
2022/08/17 09:01:31;;;;;;;38.83;33.50;;;;;;;;;;5047469;28;20040;-78
2022/08/17 09:04:06;;;;;;;44.28;38.25;;;;;;;;;;5031535;28;20037;-78
2022/08/17 09:06:47;;;;;;;39.58;32.70;;;;;;;;;;5033698;28;20127;-79
2022/08/17 09:09:13;;;;;;;48.08;36.63;;;;;;;;;;5030962;28;20136;-80
2022/08/17 09:11:47;;;;;;;36.65;32.70;;;;;;;;;;5031959;28;20125;-80
2022/08/17 09:14:13;;;;;;;45.33;36.47;;;;;;;;;;5032349;28;20041;-79
2022/08/17 09:16:45;;;;;;;44.47;35.20;;;;;;;;;;5015203;28;20049;-80
2022/08/17 09:19:16;;;;;;;37.40;32.08;;;;;;;;;;5036401;28;20029;-80
2022/08/17 09:21:46;;;;;;;36.30;32.22;;;;;;;;;;5050289;28;20047;-80
2022/08/17 09:24:21;;;;;;;35.00;31.25;;;;;;;;;;5043159;28;20424;-78
2022/08/17 09:27:08;;;;;;;33.72;29.52;;;;;;;;;;5032610;28;20496;-77
2022/08/17 09:29:38;;;;;;;33.30;29.65;;;;;;;;;;5051118;28;20040;-80
2022/08/17 09:32:11;;;;;;;33.25;29.73;;;;;;;;;;5011095;28;20041;-71
2022/08/17 09:34:41;;;;;;;35.92;29.75;;;;;;;;;;5012483;28;20045;-79
2022/08/17 09:37:14;;;;;;;36.60;28.83;;;;;;;;;;5025735;28;20029;-79
2022/08/17 09:39:53;;;;;;;36.50;29.53;;;;;;;;;;5050632;28;20047;-80
2022/08/17 09:42:42;;;;;;;38.88;30.33;;;;;;;;;;5050499;28;20333;-79
2022/08/17 09:45:30;;;;;;;34.15;29.27;;;;;;;;;;5049315;28;20183;-80
2022/08/17 09:48:08;;;;;;;31.88;27.38;;;;;;;;;;5046746;28;20041;-80
2022/08/17 09:50:38;;;;;;;33.10;29.50;;;;;;;;;;5032829;28;20044;-80
2022/08/17 09:53:05;;;;;;;31.20;27.75;;;;;;;;;;5032468;28;20080;-80
2022/08/17 09:55:37;;;;;;;39.17;31.48;;;;;;;;;;5031200;28;20037;-79
2022/08/17 09:58:16;;;;;;;32.85;28.25;;;;;;;;;;5049760;28;20045;-80
2022/08/17 10:00:47;;;;;;;32.10;28.58;;;;;;;;;;5032084;28;20124;-80
2022/08/17 10:03:17;;;;;;;33.95;29.17;;;;;;;;;;5047927;28;20055;-81
2022/08/17 10:05:47;;;;;;;36.85;29.95;;;;;;;;;;5034595;28;20094;-80
2022/08/17 10:08:26;;;;;;;28.27;24.63;;;;;;;;;;5038411;28;20510;-78
2022/08/17 10:11:04;;;;;;;32.05;28.05;;;;;;;;;;5029742;28;20391;-80
2022/08/17 10:13:50;;;;;;;30.88;25.70;;;;;;;;;;5023343;28;20505;-78
2022/08/17 10:16:20;;;;;;;29.90;26.70;;;;;;;;;;5029148;28;20068;-79
2022/08/17 10:18:46;;;;;;;31.25;27.63;;;;;;;;;;5030728;28;20120;-80
2022/08/17 10:26:47;;;;;;;28.35;25.08;;;;;;;;;;5053707;28;20053;-78
2022/08/17 10:29:17;;;;;;;28.48;22.55;;;;;;;;;;5034828;28;20048;-75
2022/08/17 10:31:47;;;;;;;25.75;23.05;;;;;;;;;;5029931;28;20045;-79
2022/08/17 10:34:17;;;;;;;30.13;23.63;;;;;;;;;;5052950;28;20033;-78
2022/08/17 10:37:14;;;;;;;23.17;20.33;;;21.00;99.90;;;;;;5053750;28;20482;-76
2022/08/17 10:40:06;;;;;;;24.38;21.60;;;21.20;99.90;;;;;;5034323;28;20049;-75
2022/08/17 10:42:36;;;;;;;22.30;19.98;;;;;;;;;;5033141;28;20045;-73
2022/08/17 10:45:06;;;;;;;20.80;16.75;;;;;;;;;;5034969;28;20045;-78
2022/08/17 10:47:51;;;;;;;25.52;18.65;;;;;;;;;;5016548;28;20045;-77
2022/08/17 10:50:41;;;;;;;19.23;17.27;;;;;;;;;;5036764;28;20045;-75
2022/08/17 10:53:07;;;;;;;22.23;17.88;;;;;;;;;;5053064;28;20052;-78
2022/08/17 10:55:33;;;;;;;19.95;17.65;;;;;;;;;;5053996;28;20076;-76
2022/08/17 10:58:20;;;;;;;19.90;17.15;;;;;;;;;;5054912;28;20037;-76
2022/08/17 11:00:52;;;;;;;24.88;18.17;;;;;;;;;;5054278;28;20114;-73
2022/08/17 11:03:20;;;;;;;22.33;17.58;;;;;;;;;;5053886;28;20505;-77
2022/08/17 11:05:51;;;;;;;17.25;15.45;;;;;;;;;;5036742;28;20119;-76
2022/08/17 11:08:29;;;;;;;17.05;14.50;;;;;;;;;;5036766;28;20401;-78
2022/08/17 11:11:14;;;;;;;16.77;15.07;;;;;;;;;;5036615;28;20040;-76
2022/08/17 11:13:39;;;;;;;;;;;;;;;;;;5055005;28;20052;-78
2022/08/17 11:16:24;;;;;;;15.90;14.30;;;;;;;;;;5036444;28;19920;-78
2022/08/17 11:19:14;;;;;;;15.00;12.70;;;;;;;;;;5053483;28;20174;-79
2022/08/17 11:21:59;;;;;;;16.80;14.18;;;;;;;;;;5036855;28;20187;-78
2022/08/17 11:24:25;;;;;;;;;;;;;;;;;;5053962;28;20049;-75
2022/08/17 11:27:02;;;;;;;12.68;10.48;;;;;;;;;;5054413;28;20369;-78
2022/08/17 11:29:36;;;;;;;16.40;12.73;;;;;;;;;;5053506;28;20094;-78
2022/08/17 11:32:22;;;;;;;13.88;11.35;;;;;;;;;;5035806;28;20064;-74
2022/08/17 11:34:49;;;;;;;17.35;12.27;;;;;;;;;;5053339;28;20517;-76
2022/08/17 11:37:24;;;;;;;14.27;11.60;;;;;;;;;;5035374;28;20506;-76
2022/08/17 11:40:04;;;;;;;14.48;10.88;;;;;;;;;;5036194;28;20040;-78
2022/08/17 11:42:33;;;;;;;13.68;11.02;;;;;;;;;;5035836;28;20040;-78
2022/08/17 11:45:09;;;;;;;15.82;12.70;;;;;;;;;;5034293;28;20063;-80
2022/08/17 11:53:37;;;;;;;16.85;13.68;;;;;;;;;;5050590;28;20094;-79
2022/08/17 11:56:10;;;;;;;16.75;12.82;;;;;;;;;;5035682;28;20048;-79
2022/08/17 11:58:43;;;;;;;16.33;12.38;;;;;;;;;;5035318;28;20482;-79
2022/08/17 12:01:09;;;;;;;14.75;12.07;;;;;;;;;;5035652;28;20049;-75
2022/08/17 12:03:35;;;;;;;15.10;11.00;;;;;;;;;;5054024;28;20048;-74
2022/08/17 12:06:03;;;;;;;15.95;12.60;;;;;;;;;;5055259;28;20104;-79
2022/08/17 12:08:32;;;;;;;14.35;10.48;;;;;;;;;;5055294;28;20045;-77
2022/08/17 12:11:17;;;;;;;11.25;9.65;;;;;;;;;;5073239;28;20047;-76
2022/08/17 12:13:49;;;;;;;16.48;11.23;;;;;;;;;;5038334;28;20045;-77
2022/08/17 12:16:16;;;;;;;12.48;9.88;;;;;;;;;;5035608;28;20048;-78
2022/08/17 12:18:48;;;;;;;14.85;11.63;;;;;;;;;;5035456;28;20045;-76
2022/08/17 12:21:18;;;;;;;13.35;11.63;;;;;;;;;;5034825;28;20078;-78
2022/08/17 12:23:48;;;;;;;15.95;11.27;;;;;;;;;;5053002;28;20084;-78
2022/08/17 12:26:19;;;;;;;13.98;10.63;;;;;;;;;;5014870;28;20062;-79
2022/08/17 12:28:47;;;;;;;15.18;11.05;;;;;;;;;;4997783;28;20042;-79
2022/08/17 12:31:16;;;;;;;17.83;12.18;;;;;;;;;;4995816;28;20129;-78
2022/08/17 12:33:44;;;;;;;16.33;13.85;;;;;;;;;;4994898;28;20053;-78
2022/08/17 12:36:16;;;;;;;12.35;9.73;;;;;;;;;;4979871;28;20038;-78
2022/08/17 12:38:49;;;;;;;12.73;9.10;;;;;;;;;;5013250;28;20046;-79
2022/08/17 12:41:28;;;;;;;14.77;10.52;;;;;;;;;;5024708;28;20041;-80
2022/08/17 12:44:00;;;;;;;17.58;11.77;;;;;;;;;;5012334;28;20053;-80
2022/08/17 12:46:28;;;;;;;14.32;10.93;;;;;;;;;;4975635;28;20050;-82
2022/08/17 12:49:10;;;;;;;14.95;12.95;;;;;;;;;;4992890;28;20376;-80
2022/08/17 12:51:41;;;;;;;14.65;11.38;;;;;;;;;;5013099;28;20046;-78
2022/08/17 12:54:17;;;;;;;16.08;13.55;;;;;;;;;;5012554;28;20121;-81
2022/08/17 12:56:45;;;;;;;14.68;12.40;;;;;;;;;;5012869;28;20038;-79
2022/08/17 12:59:11;;;;;;;14.20;12.70;;;;;;;;;;5041027;28;20385;-81
2022/08/17 13:01:40;;;;;;;16.13;12.32;;;;;;;;;;5051624;28;20063;-83
2022/08/17 13:04:06;;;;;;;13.70;12.35;;;;;;;;;;5052305;28;20044;-81
2022/08/17 13:06:35;;;;;;;17.73;12.70;;;;;;;;;;5034336;28;20052;-79
2022/08/17 13:09:09;;;;;;;13.65;12.20;;;;;;;;;;5034200;28;20041;-80
2022/08/17 13:11:35;;;;;;;14.80;10.90;;;;;;;;;;5027142;28;20045;-72
2022/08/17 13:14:08;;;;;;;14.32;11.90;;;;;;;;;;5012966;28;20073;-79
2022/08/17 13:16:34;;;;;;;18.48;12.20;;;;;;;;;;5011946;28;20104;-78
2022/08/17 13:19:06;;;;;;;14.43;12.25;;;;;;;;;;4995295;28;20125;-78
2022/08/17 13:21:32;;;;;;;13.05;11.30;;;;;;;;;;5012650;28;20048;-78
2022/08/17 13:23:58;;;;;;;14.95;12.23;;;;;;;;;;5014808;28;20065;-78
2022/08/17 13:26:32;;;;;;;13.43;11.50;;;;;;;;;;5032138;28;20405;-77
2022/08/17 13:28:58;;;;;;;13.87;10.60;;;;;;;;;;5015665;28;20045;-80
2022/08/17 13:31:28;;;;;;;14.45;10.32;;;;;;;;;;5050161;28;20402;-77
2022/08/17 13:34:13;;;;;;;14.30;10.18;;;;;;;;;;5051894;28;20056;-76
2022/08/17 13:36:39;;;;;;;15.30;11.10;;;;;;;;;;5033866;28;20063;-76
2022/08/17 13:39:19;;;;;;;16.55;11.52;;;;;;;;;;5034706;28;20137;-79
2022/08/17 13:41:47;;;;;;;16.75;11.55;;;;;;;;;;5035371;28;20041;-73
2022/08/17 13:44:33;;;;;;;16.42;11.05;;;;;;;;;;5032403;28;20087;-68
2022/08/17 13:47:00;;;;;;;12.90;10.40;;;;;;;;;;5051875;28;20037;-72
2022/08/17 13:49:27;;;;;;;13.70;10.80;;;;;;;;;;5033399;28;20040;-72
2022/08/17 13:51:53;;;;;;;15.95;11.65;;;;;;;;;;5033214;28;20517;-69
2022/08/17 13:54:33;;;;;;;16.08;12.13;;;;;;;;;;5028059;28;20654;-76
2022/08/17 13:57:16;;;;;;;13.60;10.57;;;;;;;;;;5005364;28;20095;-77
2022/08/17 13:59:49;;;;;;;13.63;11.07;;;;;;;;;;5028552;28;20222;-78
2022/08/17 14:02:22;;;;;;;15.00;11.38;;;;;;;;;;5022462;28;20041;-77
2022/08/17 14:04:52;;;;;;;14.45;12.95;;;;;;;;;;5071391;28;20051;-62
2022/08/17 14:07:19;;;;;;;14.20;12.18;;;;;;;;;;5038563;28;20040;-62
2022/08/17 14:09:48;;;;;;;15.48;11.63;;;;;;;;;;5054467;28;20040;-62
2022/08/17 14:12:17;;;;;;;14.18;11.65;;;21.60;99.90;;;;;;5070763;28;20517;-62
2022/08/17 14:14:45;;;;;;;13.00;11.23;;;;;;;;;;5045634;28;20120;-62
2022/08/17 14:17:11;;;;;;;14.02;11.15;;;;;;;;;;5018974;28;20182;-62
2022/08/17 14:19:38;;;;;;;14.75;10.98;;;;;;;;;;5034323;28;20053;-62
2022/08/17 14:22:07;;;;;;;15.82;10.88;;;;;;;;;;5041774;28;20393;-62
2022/08/17 14:24:39;;;;;;;12.02;10.10;;;;;;;;;;5044435;28;20053;-62
2022/08/17 14:27:07;;;;;;;15.15;10.90;;;;;;;;;;5035004;28;20208;-62
2022/08/17 14:29:34;;;;;;;14.02;10.55;;;;;;;;;;5054827;28;20048;-62
2022/08/17 14:32:03;;;;;;;14.93;12.45;;;;;;;;;;5057670;28;20072;-62
2022/08/17 14:34:29;;;;;;;14.27;11.35;;;;;;;;;;5051774;28;20033;-62
2022/08/17 14:36:55;;;;;;;14.02;11.50;;;;;;;;;;5051515;28;20037;-62
2022/08/17 14:39:22;;;;;;;16.25;11.70;;;;;;;;;;5034101;28;20045;-61
2022/08/17 14:41:48;;;;;;;14.90;10.75;;;;;;;;;;5032809;28;20086;-61
2022/08/17 14:44:15;;;;;;;13.60;9.25;;;;;;;;;;5052782;28;20041;-62
2022/08/17 14:46:42;;;;;;;12.07;7.82;;;;;;;;;;5033620;28;20036;-62
2022/08/17 14:49:10;;;;;;;17.63;9.35;;;;;;;;;;5030583;28;20073;-62
2022/08/17 14:51:46;;;;;;;10.93;9.45;;;;;;;;;;5029375;28;20502;-62
2022/08/17 14:54:22;;;;;;;13.73;9.80;;;;;;;;;;5014843;28;20119;-62
2022/08/17 14:56:48;;;;;;;12.15;10.57;;;;;;;;;;5050272;28;20547;-62
2022/08/17 14:59:15;;;;;;;13.85;10.23;;;;;;;;;;5038188;28;20103;-63
2022/08/17 15:01:52;;;;;;;13.73;9.25;;;;;;;;;;5035631;28;20046;-63
2022/08/17 15:04:18;;;;;;;14.10;9.88;;;;;;;;;;5063402;28;20147;-62
2022/08/17 15:06:47;;;;;;;14.65;11.10;;;;;;;;;;5027762;28;20070;-63
2022/08/17 15:09:14;;;;;;;15.07;9.50;;;;;;;;;;5050692;28;20111;-62
2022/08/17 15:11:40;;;;;;;12.48;9.32;;;;;;;;;;5037685;28;20057;-63